createdAt,value
2023-04-15T00:00:58.948Z,3.80
2023-04-15T00:03:25.944Z,3.38
2023-04-15T00:05:52.783Z,3.50
2023-04-15T00:08:20.469Z,3.00
2023-04-15T00:10:47.137Z,3.40
2023-04-15T00:13:13.736Z,3.45
2023-04-15T00:15:40.293Z,3.08
2023-04-15T00:18:08.315Z,3.55
2023-04-15T00:20:35.691Z,3.80
2023-04-15T00:23:04.144Z,4.10
2023-04-15T00:25:31.010Z,3.67
2023-04-15T00:27:57.650Z,3.55
2023-04-15T00:30:24.295Z,3.90
2023-04-15T00:32:51.030Z,4.45
2023-04-15T00:35:18.338Z,4.30
2023-04-15T00:37:46.307Z,3.72
2023-04-15T00:40:13.812Z,3.92
2023-04-15T00:42:41.007Z,3.83
2023-04-15T00:45:08.897Z,4.07
2023-04-15T00:47:37.354Z,4.30
2023-04-15T00:52:30.815Z,4.65
2023-04-15T00:54:57.739Z,4.65
2023-04-15T00:57:24.534Z,4.55
2023-04-15T00:59:52.816Z,4.03
2023-04-15T01:02:19.985Z,4.10
2023-04-15T01:04:47.116Z,4.45
2023-04-15T01:07:13.699Z,5.53
2023-04-15T01:09:40.816Z,4.70
2023-04-15T01:12:08.716Z,4.22
2023-04-15T01:14:35.272Z,4.05
2023-04-15T01:17:02.286Z,4.93
2023-04-15T01:19:29.002Z,4.65
2023-04-15T01:21:56.361Z,4.50
2023-04-15T01:24:23.375Z,5.50
2023-04-15T01:26:50.474Z,4.88
2023-04-15T01:29:17.027Z,4.78
2023-04-15T01:31:53.721Z,4.53
2023-04-15T01:34:20.958Z,4.13
2023-04-15T01:36:47.618Z,4.55
2023-04-15T01:39:14.876Z,4.18
2023-04-15T01:41:42.413Z,4.32
2023-04-15T01:44:09.138Z,4.50
2023-04-15T01:46:36.466Z,5.05
2023-04-15T01:49:03.334Z,6.25
2023-04-15T01:51:29.920Z,5.30
2023-04-15T01:53:59.020Z,6.45
2023-04-15T01:56:25.556Z,5.85
2023-04-15T01:58:52.631Z,6.93
2023-04-15T02:01:22.328Z,6.45
2023-04-15T02:03:49.097Z,6.03
2023-04-15T02:06:16.020Z,6.57
2023-04-15T02:08:42.569Z,8.43
2023-04-15T02:11:09.387Z,9.05
2023-04-15T02:13:36.353Z,9.30
2023-04-15T02:16:03.722Z,8.60
2023-04-15T02:18:30.621Z,8.50
2023-04-15T02:20:58.821Z,8.60
2023-04-15T02:23:25.901Z,9.77
2023-04-15T02:25:53.922Z,8.23
2023-04-15T02:28:21.525Z,7.97
2023-04-15T02:30:52.989Z,7.25
2023-04-15T02:33:20.211Z,6.97
2023-04-15T02:35:47.341Z,6.88
2023-04-15T02:38:14.851Z,6.47
2023-04-15T02:40:41.623Z,7.27
2023-04-15T02:43:08.213Z,7.25
2023-04-15T02:45:34.954Z,7.53
2023-04-15T02:48:06.330Z,8.23
2023-04-15T02:50:33.431Z,7.85
2023-04-15T02:53:01.558Z,7.22
2023-04-15T02:55:28.979Z,7.15
2023-04-15T02:57:55.876Z,6.95
2023-04-15T03:00:25.264Z,6.65
2023-04-15T03:02:56.597Z,7.72
2023-04-15T03:05:26.283Z,7.93
2023-04-15T03:07:53.207Z,7.22
2023-04-15T03:10:20.251Z,8.10
2023-04-15T03:12:46.994Z,7.47
2023-04-15T03:15:13.679Z,7.43
2023-04-15T03:17:40.343Z,7.28
2023-04-15T03:20:07.493Z,7.43
2023-04-15T03:22:34.433Z,7.82
2023-04-15T03:25:01.016Z,8.15
2023-04-15T03:27:27.596Z,8.65
2023-04-15T03:29:54.146Z,8.65
2023-04-15T03:32:21.109Z,9.07
2023-04-15T03:34:47.779Z,8.35
2023-04-15T03:37:14.333Z,8.88
2023-04-15T03:39:40.915Z,8.75
2023-04-15T03:42:07.466Z,8.68
2023-04-15T03:44:34.016Z,8.52
2023-04-15T03:47:00.754Z,9.93
2023-04-15T03:49:27.348Z,9.65
2023-04-15T03:51:54.084Z,8.70
2023-04-15T03:54:20.896Z,9.32
2023-04-15T03:56:47.448Z,9.02
2023-04-15T03:59:14.023Z,9.43
2023-04-15T04:01:40.600Z,9.10
2023-04-15T04:04:07.627Z,9.63
2023-04-15T04:06:34.295Z,10.15
2023-04-15T04:09:01.911Z,10.25
2023-04-15T04:11:28.617Z,9.98
2023-04-15T04:13:55.181Z,11.13
2023-04-15T04:16:21.928Z,11.48
2023-04-15T04:18:48.587Z,11.02
2023-04-15T04:21:15.336Z,10.23
2023-04-15T04:23:41.988Z,11.70
2023-04-15T04:26:08.602Z,9.68
2023-04-15T04:28:36.478Z,11.27
2023-04-15T04:31:03.041Z,10.13
2023-04-15T04:33:29.610Z,10.88
2023-04-15T04:35:56.225Z,10.98
2023-04-15T04:38:22.860Z,12.27
2023-04-15T04:40:49.412Z,11.75
2023-04-15T04:43:16.234Z,13.07
2023-04-15T04:45:42.994Z,12.45
2023-04-15T04:48:10.597Z,12.48
2023-04-15T04:50:37.266Z,11.67
2023-04-15T04:53:03.910Z,12.55
2023-04-15T04:55:32.007Z,12.23
2023-04-15T04:57:58.577Z,13.05
2023-04-15T05:00:25.463Z,11.05
2023-04-15T05:02:52.256Z,12.82
2023-04-15T05:05:19.116Z,12.35
2023-04-15T05:07:45.725Z,13.57
2023-04-15T05:10:12.374Z,12.38
2023-04-15T05:12:39.052Z,12.50
2023-04-15T05:15:06.837Z,12.18
2023-04-15T05:17:35.352Z,12.82
2023-04-15T05:20:03.442Z,13.57
2023-04-15T05:22:29.997Z,12.02
2023-04-15T05:24:56.629Z,13.20
2023-04-15T05:27:24.118Z,12.13
2023-04-15T05:29:50.703Z,12.70
2023-04-15T05:32:17.475Z,12.40
2023-04-15T05:34:44.084Z,12.95
2023-04-15T05:37:10.673Z,12.75
2023-04-15T05:39:37.305Z,12.93
2023-04-15T05:42:06.015Z,12.68
2023-04-15T05:44:32.978Z,13.35
2023-04-15T05:46:59.670Z,13.30
2023-04-15T05:49:26.333Z,13.43
2023-04-15T05:51:52.942Z,14.07
2023-04-15T05:54:20.383Z,14.20
2023-04-15T05:56:47.037Z,14.37
2023-04-15T05:59:13.587Z,16.30
2023-04-15T06:01:40.309Z,16.48
2023-04-15T06:04:07.119Z,17.77
2023-04-15T06:06:33.786Z,19.00
2023-04-15T06:09:00.645Z,19.35
2023-04-15T06:11:27.443Z,19.90
2023-04-15T06:13:54.046Z,19.42
2023-04-15T06:16:20.677Z,18.98
2023-04-15T06:18:47.221Z,17.73
2023-04-15T06:21:13.880Z,16.67
2023-04-15T06:23:41.382Z,15.95
2023-04-15T06:26:08.546Z,15.27
2023-04-15T06:28:35.221Z,14.45
2023-04-15T06:31:02.029Z,14.98
2023-04-15T06:33:28.860Z,16.08
2023-04-15T06:35:55.457Z,16.20
2023-04-15T06:38:22.190Z,14.32
2023-04-15T06:40:48.816Z,15.27
2023-04-15T06:43:15.467Z,16.08
2023-04-15T06:45:42.010Z,14.25
2023-04-15T06:48:08.616Z,15.57
2023-04-15T06:50:35.806Z,15.63
2023-04-15T06:53:03.102Z,14.63
2023-04-15T06:55:34.010Z,14.88
2023-04-15T06:58:00.686Z,14.45
2023-04-15T07:00:28.674Z,13.82
2023-04-15T07:02:55.811Z,14.73
2023-04-15T07:05:22.709Z,14.25
2023-04-15T07:07:49.320Z,13.20
2023-04-15T07:10:16.043Z,13.70
2023-04-15T07:12:42.714Z,13.63
2023-04-15T07:15:10.052Z,14.27
2023-04-15T07:17:37.205Z,14.30
2023-04-15T07:20:04.977Z,12.75
2023-04-15T07:22:31.599Z,13.18
2023-04-15T07:24:58.162Z,13.55
2023-04-15T07:27:24.740Z,12.70
2023-04-15T07:29:52.107Z,12.98
2023-04-15T07:32:19.151Z,13.73
2023-04-15T07:34:45.869Z,12.68
2023-04-15T07:37:12.676Z,14.32
2023-04-15T07:39:39.237Z,14.18
2023-04-15T07:42:05.809Z,13.73
2023-04-15T07:44:32.419Z,14.18
2023-04-15T07:46:59.020Z,15.05
2023-04-15T07:49:25.666Z,14.38
2023-04-15T07:51:52.296Z,15.88
2023-04-15T07:54:18.853Z,15.57
2023-04-15T07:56:45.382Z,14.73
2023-04-15T07:59:11.973Z,14.55
2023-04-15T08:01:39.063Z,13.98
2023-04-15T08:04:05.793Z,12.93
2023-04-15T08:06:33.335Z,12.02
2023-04-15T08:09:00.249Z,13.32
2023-04-15T08:11:27.769Z,12.07
2023-04-15T08:13:54.398Z,11.23
2023-04-15T08:16:23.607Z,12.60
2023-04-15T08:18:52.171Z,11.45
2023-04-15T08:23:47.187Z,10.25
2023-04-15T08:26:14.277Z,12.02
2023-04-15T08:28:42.185Z,10.90
2023-04-15T08:31:09.703Z,10.95
2023-04-15T08:33:36.907Z,10.77
2023-04-15T08:36:03.706Z,10.38
2023-04-15T08:38:30.781Z,10.93
2023-04-15T08:40:58.940Z,11.17
2023-04-15T08:43:28.895Z,10.35
2023-04-15T08:45:55.862Z,10.77
2023-04-15T08:48:24.556Z,10.55
2023-04-15T08:50:51.538Z,9.48
2023-04-15T08:53:18.283Z,10.75
2023-04-15T08:55:46.236Z,8.73
2023-04-15T08:58:14.302Z,8.48
2023-04-15T09:00:41.698Z,7.78
2023-04-15T09:03:09.130Z,7.68
2023-04-15T09:05:37.278Z,6.93
2023-04-15T09:08:05.218Z,8.13
2023-04-15T09:10:32.413Z,7.25
2023-04-15T09:12:59.431Z,6.53
2023-04-15T09:15:32.419Z,7.75
2023-04-15T09:17:59.059Z,6.55
2023-04-15T09:20:25.669Z,5.70
2023-04-15T09:22:52.553Z,6.38
2023-04-15T09:25:26.538Z,6.07
2023-04-15T09:27:54.898Z,6.35
2023-04-15T09:30:21.422Z,5.53
2023-04-15T09:32:56.624Z,6.38
2023-04-15T09:35:24.171Z,5.60
2023-04-15T09:37:51.415Z,6.05
2023-04-15T09:40:41.226Z,5.30
2023-04-15T09:43:09.855Z,5.80
2023-04-15T09:45:37.204Z,5.93
2023-04-15T09:48:26.927Z,5.45
2023-04-15T09:50:57.691Z,5.63
2023-04-15T09:53:25.346Z,5.97
2023-04-15T09:55:54.661Z,5.90
2023-04-15T09:58:22.581Z,5.80
2023-04-15T10:00:51.087Z,6.07
2023-04-15T10:05:46.862Z,5.35
2023-04-15T10:08:13.467Z,5.38
2023-04-15T10:10:40.536Z,5.55
2023-04-15T10:13:07.313Z,5.63
2023-04-15T10:15:34.474Z,6.53
2023-04-15T10:18:01.655Z,6.63
2023-04-15T10:20:29.411Z,6.55
2023-04-15T10:22:56.500Z,6.15
2023-04-15T10:25:23.921Z,6.13
2023-04-15T10:27:52.190Z,6.45
2023-04-15T10:30:18.861Z,6.07
2023-04-15T10:32:46.181Z,6.35
2023-04-15T10:35:12.872Z,6.30
2023-04-15T10:37:39.718Z,6.20
2023-04-15T10:40:27.318Z,10.35
2023-04-15T10:42:58.494Z,6.68
2023-04-15T10:45:27.391Z,6.95
2023-04-15T10:47:58.181Z,6.43
2023-04-15T10:50:31.442Z,6.50
2023-04-15T10:52:58.259Z,5.82
2023-04-15T10:55:26.658Z,8.27
2023-04-15T11:00:24.764Z,6.10
2023-04-15T11:02:56.968Z,7.70
2023-04-15T11:05:49.788Z,6.38
2023-04-15T11:08:17.219Z,6.07
2023-04-15T11:10:43.782Z,5.95
2023-04-15T11:13:13.237Z,6.28
2023-04-15T11:15:41.900Z,5.47
2023-04-15T11:18:12.249Z,5.65
2023-04-15T11:20:40.497Z,5.68
2023-04-15T11:23:15.321Z,6.22
2023-04-15T11:25:43.305Z,5.55
2023-04-15T11:28:12.030Z,5.50
2023-04-15T11:33:07.371Z,6.03
2023-04-15T11:35:34.683Z,5.07
2023-04-15T11:38:06.092Z,4.93
2023-04-15T11:40:33.529Z,5.60
2023-04-15T11:43:10.428Z,5.03
2023-04-15T11:45:56.423Z,4.97
2023-04-15T11:48:25.507Z,4.80
2023-04-15T11:50:55.353Z,4.85
2023-04-15T11:53:22.202Z,5.50
2023-04-15T11:55:52.152Z,5.55
2023-04-15T11:58:25.230Z,4.70
2023-04-15T12:01:00.153Z,4.90
2023-04-15T12:03:45.825Z,4.68
2023-04-15T12:06:24.567Z,4.68
2023-04-15T12:09:03.940Z,4.18
2023-04-15T12:11:51.086Z,4.22
2023-04-15T12:14:33.146Z,4.20
2023-04-15T12:17:04.920Z,3.60
2023-04-15T12:19:42.022Z,3.47
2023-04-15T12:22:13.172Z,3.72
2023-04-15T12:24:40.493Z,3.00
2023-04-15T12:27:08.512Z,4.00
2023-04-15T12:29:36.485Z,3.08
2023-04-15T12:32:12.879Z,3.67
2023-04-15T12:34:53.153Z,3.50
2023-04-15T12:37:20.067Z,3.80
2023-04-15T12:39:48.995Z,4.28
2023-04-15T12:42:16.411Z,4.15
2023-04-15T12:44:43.193Z,4.10
2023-04-15T12:47:11.001Z,4.45
2023-04-15T12:49:38.112Z,4.65
2023-04-15T12:52:04.973Z,4.78
2023-04-15T12:54:32.151Z,4.80
2023-04-15T12:56:59.327Z,5.22
2023-04-15T12:59:26.010Z,5.43
2023-04-15T13:01:53.724Z,5.00
2023-04-15T13:04:21.431Z,4.90
2023-04-15T13:06:48.087Z,4.57
2023-04-15T13:09:15.783Z,4.38
2023-04-15T13:11:42.587Z,5.32
2023-04-15T13:14:09.763Z,4.43
2023-04-15T13:16:36.434Z,5.07
2023-04-15T13:19:04.025Z,4.53
2023-04-15T13:21:34.865Z,4.77
2023-04-15T13:24:01.860Z,5.68
2023-04-15T13:26:28.452Z,5.25
2023-04-15T13:28:55.126Z,5.65
2023-04-15T13:31:21.712Z,5.78
2023-04-15T13:33:48.382Z,6.30
2023-04-15T13:36:14.984Z,5.07
2023-04-15T13:38:41.589Z,5.72
2023-04-15T13:41:08.267Z,6.15
2023-04-15T13:43:34.847Z,6.18
2023-04-15T13:46:01.972Z,7.15
2023-04-15T13:48:28.875Z,6.97
2023-04-15T13:50:55.416Z,6.97
2023-04-15T13:53:37.648Z,7.20
2023-04-15T13:56:06.736Z,6.63
2023-04-15T13:58:33.440Z,7.80
2023-04-15T14:01:00.088Z,7.03
2023-04-15T14:03:26.855Z,7.18
2023-04-15T14:05:56.161Z,7.63
2023-04-15T14:08:23.810Z,6.43
2023-04-15T14:10:50.509Z,7.73
2023-04-15T14:13:17.211Z,7.13
2023-04-15T14:15:43.781Z,8.23
2023-04-15T14:18:10.383Z,7.30
2023-04-15T14:20:36.969Z,7.82
2023-04-15T14:23:03.529Z,7.40
2023-04-15T14:25:33.733Z,6.85
2023-04-15T14:28:01.158Z,6.90
2023-04-15T14:30:27.797Z,7.70
2023-04-15T14:32:54.494Z,6.70
2023-04-15T14:35:21.244Z,6.90
2023-04-15T14:37:47.910Z,6.50
2023-04-15T14:40:14.504Z,6.28
2023-04-15T14:42:41.102Z,6.13
2023-04-15T14:45:08.311Z,6.25
2023-04-15T14:47:35.021Z,5.90
2023-04-15T14:50:02.486Z,6.07
2023-04-15T14:52:30.028Z,7.00
2023-04-15T14:54:56.555Z,5.78
2023-04-15T14:57:23.145Z,6.38
2023-04-15T14:59:49.674Z,5.72
2023-04-15T15:02:26.299Z,6.28
2023-04-15T15:05:03.540Z,6.45
2023-04-15T15:07:30.334Z,7.03
2023-04-15T15:09:56.950Z,6.15
2023-04-15T15:12:23.610Z,6.70
2023-04-15T15:14:50.460Z,6.68
2023-04-15T15:17:17.084Z,6.30
2023-04-15T15:19:43.666Z,7.35
2023-04-15T15:22:10.226Z,6.43
2023-04-15T15:24:36.845Z,6.97
2023-04-15T15:27:03.501Z,6.28
2023-04-15T15:29:30.053Z,7.65
2023-04-15T15:31:56.708Z,7.30
2023-04-15T15:34:23.337Z,7.05
2023-04-15T15:36:49.945Z,7.88
2023-04-15T15:39:16.651Z,8.13
2023-04-15T15:41:43.319Z,7.40
2023-04-15T15:44:09.914Z,7.95
2023-04-15T15:46:36.517Z,8.52
2023-04-15T15:49:04.105Z,8.45
2023-04-15T15:51:30.945Z,10.07
2023-04-15T15:53:57.681Z,9.13
2023-04-15T15:56:24.276Z,10.02
2023-04-15T15:58:50.951Z,10.05
2023-04-15T16:01:17.533Z,10.68
2023-04-15T16:03:44.323Z,11.68
2023-04-15T16:06:11.655Z,10.80
2023-04-15T16:08:38.246Z,11.88
2023-04-15T16:11:04.841Z,11.60
2023-04-15T16:13:31.420Z,11.40
2023-04-15T16:15:58.011Z,10.77
2023-04-15T16:18:24.623Z,10.18
2023-04-15T16:20:51.316Z,10.70
2023-04-15T16:23:20.048Z,11.52
2023-04-15T16:25:46.623Z,11.07
2023-04-15T16:28:25.552Z,13.00
2023-04-15T16:30:53.513Z,12.35
2023-04-15T16:33:20.149Z,13.35
2023-04-15T16:35:46.724Z,12.68
2023-04-15T16:38:13.280Z,13.20
2023-04-15T16:40:39.874Z,12.82
2023-04-15T16:43:08.192Z,12.38
2023-04-15T16:45:34.923Z,12.52
2023-04-15T16:48:01.554Z,15.02
2023-04-15T16:50:28.181Z,14.82
2023-04-15T16:52:55.320Z,12.85
2023-04-15T16:55:22.003Z,14.25
2023-04-15T16:58:02.263Z,15.65
2023-04-15T17:00:36.214Z,15.05
2023-04-15T17:03:03.140Z,15.13
2023-04-15T17:05:31.142Z,16.65
2023-04-15T17:07:58.434Z,16.80
2023-04-15T17:10:24.996Z,15.90
2023-04-15T17:12:52.856Z,17.45
2023-04-15T17:15:20.043Z,17.50
2023-04-15T17:17:46.729Z,18.17
2023-04-15T17:20:13.408Z,16.83
2023-04-15T17:22:40.177Z,16.40
2023-04-15T17:25:07.166Z,18.30
2023-04-15T17:27:33.777Z,18.25
2023-04-15T17:30:00.422Z,18.00
2023-04-15T17:32:31.830Z,18.02
2023-04-15T17:34:58.656Z,18.50
2023-04-15T17:37:25.541Z,17.10
2023-04-15T17:39:52.292Z,19.48
2023-04-15T17:42:18.984Z,19.45
2023-04-15T17:44:46.004Z,18.48
2023-04-15T17:47:12.572Z,17.98
2023-04-15T17:49:39.186Z,17.05
2023-04-15T17:52:05.992Z,18.90
2023-04-15T17:54:32.568Z,18.48
2023-04-15T17:57:00.204Z,18.40
2023-04-15T17:59:27.748Z,19.75
2023-04-15T18:01:54.389Z,19.25
2023-04-15T18:04:22.075Z,20.13
2023-04-15T18:06:51.874Z,19.33
2023-04-15T18:09:18.534Z,18.35
2023-04-15T18:11:47.343Z,17.63
2023-04-15T18:14:17.704Z,18.08
2023-04-15T18:16:53.461Z,19.80
2023-04-15T18:19:21.793Z,16.67
2023-04-15T18:21:48.346Z,16.92
2023-04-15T18:24:16.135Z,19.90
2023-04-15T18:26:42.949Z,20.75
2023-04-15T18:29:10.571Z,19.02
2023-04-15T18:31:37.130Z,18.60
2023-04-15T18:34:07.315Z,18.95
2023-04-15T18:36:34.170Z,20.08
2023-04-15T18:39:00.776Z,20.33
2023-04-15T18:41:27.346Z,19.90
2023-04-15T18:43:54.714Z,19.10
2023-04-15T18:46:21.321Z,20.30
2023-04-15T18:48:47.885Z,20.35
2023-04-15T18:51:15.375Z,19.58
2023-04-15T18:53:41.926Z,20.92
2023-04-15T18:56:08.553Z,20.63
2023-04-15T18:59:20.792Z,23.23
2023-04-15T19:01:21.945Z,22.77
2023-04-15T19:03:48.655Z,22.58
2023-04-15T19:06:15.464Z,22.25
2023-04-15T19:08:42.071Z,22.50
2023-04-15T19:11:08.940Z,21.65
2023-04-15T19:13:35.497Z,22.80
2023-04-15T19:16:02.116Z,24.27
2023-04-15T19:18:28.666Z,23.20
2023-04-15T19:20:56.722Z,24.38
2023-04-15T19:23:23.783Z,25.30
2023-04-15T19:25:50.554Z,25.83
2023-04-15T19:28:17.117Z,25.33
2023-04-15T19:30:43.685Z,26.10
2023-04-15T19:33:10.498Z,25.55
2023-04-15T19:35:38.261Z,25.90
2023-04-15T19:38:05.388Z,26.80
2023-04-15T19:40:31.990Z,24.83
2023-04-15T19:42:58.569Z,25.95
2023-04-15T19:45:25.291Z,27.05
2023-04-15T19:47:52.782Z,26.23
2023-04-15T19:50:24.578Z,26.80
2023-04-15T19:52:51.135Z,27.15
2023-04-15T19:55:17.751Z,26.13
2023-04-15T19:57:44.360Z,28.92
2023-04-15T20:00:11.599Z,27.58
2023-04-15T20:02:38.400Z,27.45
2023-04-15T20:05:09.690Z,29.00
2023-04-15T20:07:36.413Z,28.60
2023-04-15T20:10:03.256Z,29.77
2023-04-15T20:12:51.258Z,27.17
2023-04-15T20:15:19.182Z,27.38
2023-04-15T20:17:45.846Z,28.75
2023-04-15T20:20:12.480Z,27.15
2023-04-15T20:22:39.073Z,27.23
2023-04-15T20:25:06.110Z,28.52
2023-04-15T20:27:32.694Z,28.17
2023-04-15T20:29:59.313Z,28.38
2023-04-15T20:32:26.983Z,29.65
2023-04-15T20:34:53.839Z,28.13
2023-04-15T20:37:20.547Z,29.45
2023-04-15T20:39:47.192Z,29.50
2023-04-15T20:42:13.781Z,28.52
2023-04-15T20:44:40.369Z,29.27
2023-04-15T20:47:07.312Z,29.35
2023-04-15T20:49:37.806Z,27.90
2023-04-15T20:52:06.494Z,30.10
2023-04-15T20:54:33.241Z,28.45
2023-04-15T20:57:00.066Z,29.52
2023-04-15T20:59:26.816Z,29.50
2023-04-15T21:01:53.892Z,28.58
2023-04-15T21:04:22.093Z,27.10
2023-04-15T21:06:48.758Z,30.52
2023-04-15T21:09:15.537Z,28.67
2023-04-15T21:11:59.903Z,27.83
2023-04-15T21:14:28.050Z,28.50
2023-04-15T21:16:54.657Z,29.35
2023-04-15T21:19:21.261Z,28.95
2023-04-15T21:21:47.824Z,29.58
2023-04-15T21:24:14.382Z,29.58
2023-04-15T21:26:40.991Z,29.88
2023-04-15T21:29:10.405Z,27.52
2023-04-15T21:31:38.120Z,26.70
2023-04-15T21:34:05.458Z,27.02
2023-04-15T21:36:32.285Z,28.83
2023-04-15T21:38:58.946Z,28.40
2023-04-15T21:41:25.973Z,26.58
2023-04-15T21:43:53.191Z,27.58
2023-04-15T21:46:22.275Z,27.83
2023-04-15T21:48:51.618Z,28.23
2023-04-15T21:51:18.163Z,29.38
2023-04-15T21:53:44.773Z,27.70
2023-04-15T21:56:12.036Z,29.05
2023-04-15T21:58:38.611Z,29.48
2023-04-15T22:01:05.336Z,28.33
2023-04-15T22:03:34.049Z,29.05
2023-04-15T22:06:03.975Z,27.77
2023-04-15T22:08:38.132Z,29.50
2023-04-15T22:11:20.606Z,29.02
2023-04-15T22:13:47.187Z,27.30
2023-04-15T22:16:13.751Z,26.98
2023-04-15T22:18:40.321Z,28.58
2023-04-15T22:21:07.943Z,28.08
2023-04-15T22:23:34.518Z,28.53
2023-04-15T22:26:01.090Z,28.10
2023-04-15T22:28:27.729Z,29.05
2023-04-15T22:30:54.738Z,28.25
2023-04-15T22:33:21.376Z,29.67
2023-04-15T22:35:47.970Z,26.80
2023-04-15T22:38:14.537Z,27.95
2023-04-15T22:40:41.126Z,29.00
2023-04-15T22:43:07.697Z,28.75
2023-04-15T22:45:34.341Z,30.73
2023-04-15T22:48:01.196Z,30.23
2023-04-15T22:50:27.868Z,27.30
2023-04-15T22:52:54.433Z,28.00
2023-04-15T22:55:21.311Z,28.45
2023-04-15T22:57:47.872Z,27.98
2023-04-15T23:00:14.589Z,26.88
2023-04-15T23:02:41.239Z,26.95
2023-04-15T23:05:13.029Z,27.45
2023-04-15T23:07:40.056Z,29.15
2023-04-15T23:10:08.035Z,28.98
2023-04-15T23:12:34.710Z,29.10
2023-04-15T23:15:01.285Z,30.52
2023-04-15T23:17:27.933Z,29.05
2023-04-15T23:19:54.505Z,25.98
2023-04-15T23:22:21.080Z,26.50
2023-04-15T23:24:47.649Z,30.35
2023-04-15T23:27:14.231Z,28.30
2023-04-15T23:29:40.850Z,28.63
2023-04-15T23:32:07.419Z,27.10
2023-04-15T23:34:34.033Z,26.88
2023-04-15T23:37:00.955Z,28.42
2023-04-15T23:39:27.552Z,28.27
2023-04-15T23:41:54.181Z,27.77
2023-04-15T23:44:20.747Z,27.58
2023-04-15T23:46:47.447Z,29.05
2023-04-15T23:49:14.274Z,27.88
2023-04-15T23:51:41.164Z,29.52
2023-04-15T23:54:07.750Z,29.02
2023-04-15T23:56:34.330Z,29.95
2023-04-15T23:59:00.900Z,28.90
